sensor_id;sensor_type;location;lat;lon;timestamp;P1;durP1;ratioP1;P2;durP2;ratioP2
16502;SDS011;53067;48.114;11.694;2023-06-22T00:01:31;5.47;;;3.52;;
16502;SDS011;53067;48.114;11.694;2023-06-22T00:03:58;4.08;;;3.67;;
16502;SDS011;53067;48.114;11.694;2023-06-22T00:06:32;6.03;;;3.62;;
16502;SDS011;53067;48.114;11.694;2023-06-22T00:09:00;4.97;;;3.70;;
16502;SDS011;53067;48.114;11.694;2023-06-22T00:11:27;4.70;;;4.10;;
16502;SDS011;53067;48.114;11.694;2023-06-22T00:13:57;5.05;;;3.40;;
16502;SDS011;53067;48.114;11.694;2023-06-22T00:16:24;5.53;;;3.80;;
16502;SDS011;53067;48.114;11.694;2023-06-22T00:18:52;5.53;;;3.47;;
16502;SDS011;53067;48.114;11.694;2023-06-22T00:21:19;4.25;;;3.85;;
16502;SDS011;53067;48.114;11.694;2023-06-22T00:23:47;4.28;;;3.80;;
16502;SDS011;53067;48.114;11.694;2023-06-22T00:26:14;4.90;;;3.85;;
16502;SDS011;53067;48.114;11.694;2023-06-22T00:28:43;5.20;;;3.83;;
16502;SDS011;53067;48.114;11.694;2023-06-22T00:31:10;4.47;;;4.00;;
16502;SDS011;53067;48.114;11.694;2023-06-22T00:33:38;7.28;;;3.83;;
16502;SDS011;53067;48.114;11.694;2023-06-22T00:36:05;4.30;;;3.27;;
16502;SDS011;53067;48.114;11.694;2023-06-22T00:38:35;4.80;;;4.03;;
16502;SDS011;53067;48.114;11.694;2023-06-22T00:41:04;5.28;;;3.95;;
16502;SDS011;53067;48.114;11.694;2023-06-22T00:43:31;4.92;;;3.62;;
16502;SDS011;53067;48.114;11.694;2023-06-22T00:48:46;4.75;;;3.85;;
16502;SDS011;53067;48.114;11.694;2023-06-22T00:51:13;5.87;;;3.75;;
16502;SDS011;53067;48.114;11.694;2023-06-22T00:53:41;9.35;;;4.05;;
16502;SDS011;53067;48.114;11.694;2023-06-22T00:56:09;4.12;;;3.50;;
16502;SDS011;53067;48.114;11.694;2023-06-22T00:58:38;5.22;;;3.60;;
16502;SDS011;53067;48.114;11.694;2023-06-22T01:01:07;5.50;;;4.00;;
16502;SDS011;53067;48.114;11.694;2023-06-22T01:03:35;4.17;;;3.37;;
16502;SDS011;53067;48.114;11.694;2023-06-22T01:06:06;4.17;;;3.55;;
16502;SDS011;53067;48.114;11.694;2023-06-22T01:11:26;5.10;;;3.90;;
16502;SDS011;53067;48.114;11.694;2023-06-22T01:16:39;5.80;;;4.15;;
16502;SDS011;53067;48.114;11.694;2023-06-22T01:19:09;6.47;;;3.65;;
16502;SDS011;53067;48.114;11.694;2023-06-22T01:21:49;4.58;;;3.70;;
16502;SDS011;53067;48.114;11.694;2023-06-22T01:24:23;8.20;;;4.10;;
16502;SDS011;53067;48.114;11.694;2023-06-22T01:29:41;5.62;;;3.65;;
16502;SDS011;53067;48.114;11.694;2023-06-22T01:32:09;4.28;;;3.77;;
16502;SDS011;53067;48.114;11.694;2023-06-22T01:34:37;6.97;;;3.95;;
16502;SDS011;53067;48.114;11.694;2023-06-22T01:37:06;3.85;;;3.50;;
16502;SDS011;53067;48.114;11.694;2023-06-22T01:39:34;5.58;;;3.70;;
16502;SDS011;53067;48.114;11.694;2023-06-22T01:42:02;5.75;;;4.00;;
16502;SDS011;53067;48.114;11.694;2023-06-22T01:44:41;5.25;;;3.58;;
16502;SDS011;53067;48.114;11.694;2023-06-22T01:47:09;5.00;;;3.70;;
16502;SDS011;53067;48.114;11.694;2023-06-22T01:49:57;3.62;;;3.30;;
16502;SDS011;53067;48.114;11.694;2023-06-22T01:52:25;4.30;;;3.83;;
16502;SDS011;53067;48.114;11.694;2023-06-22T01:54:53;5.75;;;3.50;;
16502;SDS011;53067;48.114;11.694;2023-06-22T01:57:20;3.85;;;3.52;;
16502;SDS011;53067;48.114;11.694;2023-06-22T02:05:54;5.33;;;4.17;;
16502;SDS011;53067;48.114;11.694;2023-06-22T02:08:16;5.72;;;3.92;;
16502;SDS011;53067;48.114;11.694;2023-06-22T02:10:47;3.92;;;3.50;;
16502;SDS011;53067;48.114;11.694;2023-06-22T02:13:17;9.63;;;4.85;;
16502;SDS011;53067;48.114;11.694;2023-06-22T02:15:45;6.37;;;4.20;;
16502;SDS011;53067;48.114;11.694;2023-06-22T02:18:14;4.78;;;4.37;;
16502;SDS011;53067;48.114;11.694;2023-06-22T02:20:42;4.40;;;4.05;;
16502;SDS011;53067;48.114;11.694;2023-06-22T02:23:10;6.05;;;3.95;;
16502;SDS011;53067;48.114;11.694;2023-06-22T02:25:37;4.70;;;4.08;;
16502;SDS011;53067;48.114;11.694;2023-06-22T02:28:07;6.75;;;4.25;;
16502;SDS011;53067;48.114;11.694;2023-06-22T02:30:34;7.03;;;4.20;;
16502;SDS011;53067;48.114;11.694;2023-06-22T02:33:02;5.42;;;4.20;;
16502;SDS011;53067;48.114;11.694;2023-06-22T02:35:29;6.08;;;3.72;;
16502;SDS011;53067;48.114;11.694;2023-06-22T02:38:00;4.90;;;4.40;;
16502;SDS011;53067;48.114;11.694;2023-06-22T02:40:29;6.05;;;4.20;;
16502;SDS011;53067;48.114;11.694;2023-06-22T02:42:57;5.75;;;4.62;;
16502;SDS011;53067;48.114;11.694;2023-06-22T02:45:27;5.65;;;4.05;;
16502;SDS011;53067;48.114;11.694;2023-06-22T02:47:55;4.62;;;4.20;;
16502;SDS011;53067;48.114;11.694;2023-06-22T02:50:23;6.15;;;4.37;;
16502;SDS011;53067;48.114;11.694;2023-06-22T02:52:51;4.90;;;4.40;;
16502;SDS011;53067;48.114;11.694;2023-06-22T02:55:18;5.83;;;4.30;;
16502;SDS011;53067;48.114;11.694;2023-06-22T02:57:46;6.35;;;4.17;;
16502;SDS011;53067;48.114;11.694;2023-06-22T03:00:15;5.65;;;4.30;;
16502;SDS011;53067;48.114;11.694;2023-06-22T03:02:44;6.25;;;4.72;;
16502;SDS011;53067;48.114;11.694;2023-06-22T03:05:12;4.40;;;4.03;;
16502;SDS011;53067;48.114;11.694;2023-06-22T03:07:43;6.70;;;4.03;;
16502;SDS011;53067;48.114;11.694;2023-06-22T03:10:12;6.80;;;4.58;;
16502;SDS011;53067;48.114;11.694;2023-06-22T03:12:41;5.92;;;4.65;;
16502;SDS011;53067;48.114;11.694;2023-06-22T03:15:16;5.28;;;4.00;;
16502;SDS011;53067;48.114;11.694;2023-06-22T03:17:44;8.83;;;4.53;;
16502;SDS011;53067;48.114;11.694;2023-06-22T03:20:12;5.20;;;4.75;;
16502;SDS011;53067;48.114;11.694;2023-06-22T03:22:40;5.47;;;4.85;;
16502;SDS011;53067;48.114;11.694;2023-06-22T03:25:28;5.33;;;4.80;;
16502;SDS011;53067;48.114;11.694;2023-06-22T03:27:55;8.70;;;4.72;;
16502;SDS011;53067;48.114;11.694;2023-06-22T03:30:23;5.25;;;4.75;;
16502;SDS011;53067;48.114;11.694;2023-06-22T03:32:50;5.58;;;5.05;;
16502;SDS011;53067;48.114;11.694;2023-06-22T03:35:18;6.78;;;4.85;;
16502;SDS011;53067;48.114;11.694;2023-06-22T03:37:45;7.95;;;5.03;;
16502;SDS011;53067;48.114;11.694;2023-06-22T03:40:13;8.88;;;5.47;;
16502;SDS011;53067;48.114;11.694;2023-06-22T03:42:40;5.85;;;4.80;;
16502;SDS011;53067;48.114;11.694;2023-06-22T03:45:08;7.70;;;5.03;;
16502;SDS011;53067;48.114;11.694;2023-06-22T03:47:37;5.83;;;5.22;;
16502;SDS011;53067;48.114;11.694;2023-06-22T03:50:05;6.50;;;5.55;;
16502;SDS011;53067;48.114;11.694;2023-06-22T03:52:33;6.17;;;5.35;;
16502;SDS011;53067;48.114;11.694;2023-06-22T03:55:01;6.10;;;5.53;;
16502;SDS011;53067;48.114;11.694;2023-06-22T03:57:33;8.08;;;5.20;;
16502;SDS011;53067;48.114;11.694;2023-06-22T04:00:01;7.92;;;5.90;;
16502;SDS011;53067;48.114;11.694;2023-06-22T04:02:30;8.88;;;5.72;;
16502;SDS011;53067;48.114;11.694;2023-06-22T04:04:58;7.28;;;5.80;;
16502;SDS011;53067;48.114;11.694;2023-06-22T04:07:25;9.35;;;5.62;;
16502;SDS011;53067;48.114;11.694;2023-06-22T04:09:53;7.85;;;5.30;;
16502;SDS011;53067;48.114;11.694;2023-06-22T04:12:20;7.12;;;5.60;;
16502;SDS011;53067;48.114;11.694;2023-06-22T04:14:48;6.62;;;5.92;;
16502;SDS011;53067;48.114;11.694;2023-06-22T04:17:15;6.80;;;6.20;;
16502;SDS011;53067;48.114;11.694;2023-06-22T04:19:43;7.78;;;5.70;;
16502;SDS011;53067;48.114;11.694;2023-06-22T04:22:11;9.25;;;6.58;;
16502;SDS011;53067;48.114;11.694;2023-06-22T04:24:38;6.87;;;5.72;;
16502;SDS011;53067;48.114;11.694;2023-06-22T04:27:06;7.28;;;6.58;;
16502;SDS011;53067;48.114;11.694;2023-06-22T04:29:33;8.13;;;6.53;;
16502;SDS011;53067;48.114;11.694;2023-06-22T04:32:01;10.95;;;6.80;;
16502;SDS011;53067;48.114;11.694;2023-06-22T04:34:31;7.95;;;6.25;;
16502;SDS011;53067;48.114;11.694;2023-06-22T04:36:58;7.53;;;5.95;;
16502;SDS011;53067;48.114;11.694;2023-06-22T04:39:26;7.83;;;6.95;;
16502;SDS011;53067;48.114;11.694;2023-06-22T04:41:53;8.88;;;6.40;;
16502;SDS011;53067;48.114;11.694;2023-06-22T04:44:23;7.05;;;6.45;;
16502;SDS011;53067;48.114;11.694;2023-06-22T04:46:51;7.62;;;6.20;;
16502;SDS011;53067;48.114;11.694;2023-06-22T04:49:34;8.73;;;6.35;;
16502;SDS011;53067;48.114;11.694;2023-06-22T04:52:07;7.00;;;6.30;;
16502;SDS011;53067;48.114;11.694;2023-06-22T04:54:37;9.75;;;6.78;;
16502;SDS011;53067;48.114;11.694;2023-06-22T04:57:06;8.08;;;6.00;;
16502;SDS011;53067;48.114;11.694;2023-06-22T04:59:37;10.45;;;6.78;;
16502;SDS011;53067;48.114;11.694;2023-06-22T05:02:07;8.55;;;6.65;;
16502;SDS011;53067;48.114;11.694;2023-06-22T05:04:35;7.95;;;6.72;;
16502;SDS011;53067;48.114;11.694;2023-06-22T05:07:04;9.18;;;6.53;;
16502;SDS011;53067;48.114;11.694;2023-06-22T05:09:32;9.13;;;6.55;;
16502;SDS011;53067;48.114;11.694;2023-06-22T05:12:00;9.40;;;7.17;;
16502;SDS011;53067;48.114;11.694;2023-06-22T05:14:30;10.13;;;7.25;;
16502;SDS011;53067;48.114;11.694;2023-06-22T05:16:58;10.23;;;6.50;;
16502;SDS011;53067;48.114;11.694;2023-06-22T05:19:25;8.05;;;6.25;;
16502;SDS011;53067;48.114;11.694;2023-06-22T05:21:57;6.72;;;6.08;;
16502;SDS011;53067;48.114;11.694;2023-06-22T05:24:25;10.82;;;6.20;;
16502;SDS011;53067;48.114;11.694;2023-06-22T05:26:52;9.15;;;6.45;;
16502;SDS011;53067;48.114;11.694;2023-06-22T05:29:21;6.70;;;5.65;;
16502;SDS011;53067;48.114;11.694;2023-06-22T05:31:48;7.95;;;6.42;;
16502;SDS011;53067;48.114;11.694;2023-06-22T05:34:16;8.33;;;5.85;;
16502;SDS011;53067;48.114;11.694;2023-06-22T05:36:44;12.43;;;6.40;;
16502;SDS011;53067;48.114;11.694;2023-06-22T05:39:12;7.05;;;5.83;;
16502;SDS011;53067;48.114;11.694;2023-06-22T05:41:40;10.28;;;6.70;;
16502;SDS011;53067;48.114;11.694;2023-06-22T05:44:09;8.98;;;6.58;;
16502;SDS011;53067;48.114;11.694;2023-06-22T05:46:36;7.33;;;5.87;;
16502;SDS011;53067;48.114;11.694;2023-06-22T05:49:05;6.95;;;6.00;;
16502;SDS011;53067;48.114;11.694;2023-06-22T05:51:33;8.13;;;5.95;;
16502;SDS011;53067;48.114;11.694;2023-06-22T05:54:00;8.20;;;5.40;;
16502;SDS011;53067;48.114;11.694;2023-06-22T05:56:28;7.58;;;5.80;;
16502;SDS011;53067;48.114;11.694;2023-06-22T05:58:55;8.13;;;6.22;;
16502;SDS011;53067;48.114;11.694;2023-06-22T06:01:23;8.45;;;6.30;;
16502;SDS011;53067;48.114;11.694;2023-06-22T06:03:51;12.53;;;6.65;;
16502;SDS011;53067;48.114;11.694;2023-06-22T06:06:19;10.43;;;6.45;;
16502;SDS011;53067;48.114;11.694;2023-06-22T06:08:48;10.68;;;6.45;;
16502;SDS011;53067;48.114;11.694;2023-06-22T06:11:16;6.83;;;5.80;;
16502;SDS011;53067;48.114;11.694;2023-06-22T06:13:43;10.63;;;6.20;;
16502;SDS011;53067;48.114;11.694;2023-06-22T06:16:11;6.95;;;6.35;;
16502;SDS011;53067;48.114;11.694;2023-06-22T06:18:39;10.38;;;6.50;;
16502;SDS011;53067;48.114;11.694;2023-06-22T06:21:06;8.35;;;6.30;;
16502;SDS011;53067;48.114;11.694;2023-06-22T06:23:34;7.20;;;5.90;;
16502;SDS011;53067;48.114;11.694;2023-06-22T06:26:01;8.38;;;6.50;;
16502;SDS011;53067;48.114;11.694;2023-06-22T06:28:30;7.60;;;6.42;;
16502;SDS011;53067;48.114;11.694;2023-06-22T06:30:58;6.97;;;6.37;;
16502;SDS011;53067;48.114;11.694;2023-06-22T06:33:25;8.00;;;6.72;;
16502;SDS011;53067;48.114;11.694;2023-06-22T06:35:53;10.28;;;6.42;;
16502;SDS011;53067;48.114;11.694;2023-06-22T06:38:21;7.37;;;6.53;;
16502;SDS011;53067;48.114;11.694;2023-06-22T06:40:49;9.58;;;6.70;;
16502;SDS011;53067;48.114;11.694;2023-06-22T06:43:16;8.50;;;6.28;;
16502;SDS011;53067;48.114;11.694;2023-06-22T06:45:44;9.90;;;6.40;;
16502;SDS011;53067;48.114;11.694;2023-06-22T06:48:11;12.20;;;6.60;;
16502;SDS011;53067;48.114;11.694;2023-06-22T06:50:39;14.23;;;7.20;;
16502;SDS011;53067;48.114;11.694;2023-06-22T06:53:07;9.18;;;6.80;;
16502;SDS011;53067;48.114;11.694;2023-06-22T06:55:34;7.35;;;6.62;;
16502;SDS011;53067;48.114;11.694;2023-06-22T06:58:02;9.33;;;7.03;;
16502;SDS011;53067;48.114;11.694;2023-06-22T07:00:31;12.68;;;6.78;;
16502;SDS011;53067;48.114;11.694;2023-06-22T07:02:59;7.45;;;6.42;;
16502;SDS011;53067;48.114;11.694;2023-06-22T07:05:26;12.55;;;6.75;;
16502;SDS011;53067;48.114;11.694;2023-06-22T07:07:54;8.13;;;6.35;;
16502;SDS011;53067;48.114;11.694;2023-06-22T07:10:21;11.50;;;6.42;;
16502;SDS011;53067;48.114;11.694;2023-06-22T07:12:50;10.15;;;6.65;;
16502;SDS011;53067;48.114;11.694;2023-06-22T07:15:17;9.18;;;7.87;;
16502;SDS011;53067;48.114;11.694;2023-06-22T07:17:45;9.88;;;6.78;;
16502;SDS011;53067;48.114;11.694;2023-06-22T07:20:12;13.48;;;6.70;;
16502;SDS011;53067;48.114;11.694;2023-06-22T07:22:45;8.50;;;6.60;;
16502;SDS011;53067;48.114;11.694;2023-06-22T07:25:13;10.43;;;6.62;;
16502;SDS011;53067;48.114;11.694;2023-06-22T07:27:45;10.45;;;6.45;;
16502;SDS011;53067;48.114;11.694;2023-06-22T07:30:14;9.38;;;6.70;;
16502;SDS011;53067;48.114;11.694;2023-06-22T07:32:41;9.28;;;6.30;;
16502;SDS011;53067;48.114;11.694;2023-06-22T07:35:09;12.30;;;6.35;;
16502;SDS011;53067;48.114;11.694;2023-06-22T07:37:36;10.80;;;6.80;;
16502;SDS011;53067;48.114;11.694;2023-06-22T07:40:19;12.40;;;6.53;;
16502;SDS011;53067;48.114;11.694;2023-06-22T07:42:47;12.55;;;6.80;;
16502;SDS011;53067;48.114;11.694;2023-06-22T07:45:16;12.88;;;7.33;;
16502;SDS011;53067;48.114;11.694;2023-06-22T07:47:44;11.65;;;6.62;;
16502;SDS011;53067;48.114;11.694;2023-06-22T07:50:11;9.23;;;6.42;;
16502;SDS011;53067;48.114;11.694;2023-06-22T07:52:39;10.53;;;6.30;;
16502;SDS011;53067;48.114;11.694;2023-06-22T07:55:06;9.75;;;7.20;;
16502;SDS011;53067;48.114;11.694;2023-06-22T07:57:34;10.98;;;6.40;;
16502;SDS011;53067;48.114;11.694;2023-06-22T08:00:03;9.88;;;6.30;;
16502;SDS011;53067;48.114;11.694;2023-06-22T08:02:34;10.10;;;6.22;;
16502;SDS011;53067;48.114;11.694;2023-06-22T08:05:01;12.95;;;6.95;;
16502;SDS011;53067;48.114;11.694;2023-06-22T08:07:30;11.05;;;6.78;;
16502;SDS011;53067;48.114;11.694;2023-06-22T08:09:59;7.60;;;6.28;;
16502;SDS011;53067;48.114;11.694;2023-06-22T08:12:26;10.15;;;6.72;;
16502;SDS011;53067;48.114;11.694;2023-06-22T08:14:54;6.70;;;6.00;;
16502;SDS011;53067;48.114;11.694;2023-06-22T08:17:23;10.18;;;6.75;;
16502;SDS011;53067;48.114;11.694;2023-06-22T08:19:51;10.88;;;6.60;;
16502;SDS011;53067;48.114;11.694;2023-06-22T08:22:19;7.50;;;6.25;;
16502;SDS011;53067;48.114;11.694;2023-06-22T08:24:46;10.80;;;6.75;;
16502;SDS011;53067;48.114;11.694;2023-06-22T08:27:14;10.23;;;6.22;;
16502;SDS011;53067;48.114;11.694;2023-06-22T08:29:43;10.65;;;6.72;;
16502;SDS011;53067;48.114;11.694;2023-06-22T08:32:13;10.18;;;6.58;;
16502;SDS011;53067;48.114;11.694;2023-06-22T08:34:41;9.38;;;6.55;;
16502;SDS011;53067;48.114;11.694;2023-06-22T08:37:08;8.00;;;6.20;;
16502;SDS011;53067;48.114;11.694;2023-06-22T08:39:36;11.18;;;7.12;;
16502;SDS011;53067;48.114;11.694;2023-06-22T08:42:05;8.95;;;6.12;;
16502;SDS011;53067;48.114;11.694;2023-06-22T08:44:33;8.98;;;6.85;;
16502;SDS011;53067;48.114;11.694;2023-06-22T08:47:00;8.60;;;6.17;;
16502;SDS011;53067;48.114;11.694;2023-06-22T08:49:29;9.65;;;6.42;;
16502;SDS011;53067;48.114;11.694;2023-06-22T08:51:56;6.47;;;5.50;;
16502;SDS011;53067;48.114;11.694;2023-06-22T08:54:24;13.72;;;6.15;;
16502;SDS011;53067;48.114;11.694;2023-06-22T08:56:51;9.95;;;6.55;;
16502;SDS011;53067;48.114;11.694;2023-06-22T08:59:19;9.85;;;6.40;;
16502;SDS011;53067;48.114;11.694;2023-06-22T09:01:47;12.37;;;6.35;;
16502;SDS011;53067;48.114;11.694;2023-06-22T09:04:14;11.33;;;6.03;;
16502;SDS011;53067;48.114;11.694;2023-06-22T09:06:42;9.03;;;6.47;;
16502;SDS011;53067;48.114;11.694;2023-06-22T09:09:15;10.93;;;6.72;;
16502;SDS011;53067;48.114;11.694;2023-06-22T09:11:43;11.10;;;5.92;;
16502;SDS011;53067;48.114;11.694;2023-06-22T09:14:10;7.30;;;6.05;;
16502;SDS011;53067;48.114;11.694;2023-06-22T09:16:38;6.55;;;5.92;;
16502;SDS011;53067;48.114;11.694;2023-06-22T09:19:06;9.05;;;6.58;;
16502;SDS011;53067;48.114;11.694;2023-06-22T09:21:33;10.05;;;5.58;;
16502;SDS011;53067;48.114;11.694;2023-06-22T09:24:01;9.53;;;6.08;;
16502;SDS011;53067;48.114;11.694;2023-06-22T09:26:28;7.80;;;6.33;;
16502;SDS011;53067;48.114;11.694;2023-06-22T09:28:56;13.08;;;6.28;;
16502;SDS011;53067;48.114;11.694;2023-06-22T09:31:23;11.78;;;6.70;;
16502;SDS011;53067;48.114;11.694;2023-06-22T09:33:54;9.28;;;7.15;;
16502;SDS011;53067;48.114;11.694;2023-06-22T09:36:21;11.30;;;6.95;;
16502;SDS011;53067;48.114;11.694;2023-06-22T09:38:49;7.72;;;5.95;;
16502;SDS011;53067;48.114;11.694;2023-06-22T09:41:21;12.05;;;6.28;;
16502;SDS011;53067;48.114;11.694;2023-06-22T09:43:49;11.15;;;6.30;;
16502;SDS011;53067;48.114;11.694;2023-06-22T09:46:17;10.65;;;6.95;;
16502;SDS011;53067;48.114;11.694;2023-06-22T09:48:46;11.20;;;6.20;;
16502;SDS011;53067;48.114;11.694;2023-06-22T09:51:13;10.98;;;6.17;;
16502;SDS011;53067;48.114;11.694;2023-06-22T09:53:41;9.75;;;7.03;;
16502;SDS011;53067;48.114;11.694;2023-06-22T09:56:09;11.63;;;6.33;;
16502;SDS011;53067;48.114;11.694;2023-06-22T09:58:44;10.45;;;6.58;;
16502;SDS011;53067;48.114;11.694;2023-06-22T10:01:13;11.90;;;6.53;;
16502;SDS011;53067;48.114;11.694;2023-06-22T10:03:40;11.85;;;6.12;;
16502;SDS011;53067;48.114;11.694;2023-06-22T10:06:08;9.85;;;6.28;;
16502;SDS011;53067;48.114;11.694;2023-06-22T10:08:35;10.03;;;5.50;;
16502;SDS011;53067;48.114;11.694;2023-06-22T10:11:03;8.65;;;5.60;;
16502;SDS011;53067;48.114;11.694;2023-06-22T10:13:31;9.28;;;6.17;;
16502;SDS011;53067;48.114;11.694;2023-06-22T10:15:59;12.58;;;6.83;;
16502;SDS011;53067;48.114;11.694;2023-06-22T10:18:26;10.08;;;5.33;;
16502;SDS011;53067;48.114;11.694;2023-06-22T10:20:54;8.23;;;6.33;;
16502;SDS011;53067;48.114;11.694;2023-06-22T10:23:21;6.62;;;5.90;;
16502;SDS011;53067;48.114;11.694;2023-06-22T10:28:53;7.28;;;5.70;;
16502;SDS011;53067;48.114;11.694;2023-06-22T10:31:21;10.50;;;6.53;;
16502;SDS011;53067;48.114;11.694;2023-06-22T10:34:00;9.65;;;6.50;;
16502;SDS011;53067;48.114;11.694;2023-06-22T10:36:28;9.25;;;6.30;;
16502;SDS011;53067;48.114;11.694;2023-06-22T10:38:55;8.68;;;6.30;;
16502;SDS011;53067;48.114;11.694;2023-06-22T10:41:25;7.67;;;6.30;;
16502;SDS011;53067;48.114;11.694;2023-06-22T10:43:54;10.45;;;6.47;;
16502;SDS011;53067;48.114;11.694;2023-06-22T10:46:23;12.00;;;6.05;;
16502;SDS011;53067;48.114;11.694;2023-06-22T10:48:51;9.83;;;6.05;;
16502;SDS011;53067;48.114;11.694;2023-06-22T10:51:21;10.38;;;5.97;;
16502;SDS011;53067;48.114;11.694;2023-06-22T10:53:48;12.05;;;6.15;;
16502;SDS011;53067;48.114;11.694;2023-06-22T10:56:17;11.65;;;6.60;;
16502;SDS011;53067;48.114;11.694;2023-06-22T10:58:45;8.63;;;6.97;;
16502;SDS011;53067;48.114;11.694;2023-06-22T11:01:13;13.03;;;6.37;;
16502;SDS011;53067;48.114;11.694;2023-06-22T11:03:40;9.55;;;6.33;;
16502;SDS011;53067;48.114;11.694;2023-06-22T11:06:08;10.00;;;5.90;;
16502;SDS011;53067;48.114;11.694;2023-06-22T11:11:12;9.63;;;5.92;;
16502;SDS011;53067;48.114;11.694;2023-06-22T11:13:39;7.78;;;6.08;;
16502;SDS011;53067;48.114;11.694;2023-06-22T11:16:07;9.15;;;6.22;;
16502;SDS011;53067;48.114;11.694;2023-06-22T11:18:34;7.00;;;6.22;;
16502;SDS011;53067;48.114;11.694;2023-06-22T11:21:02;7.28;;;6.10;;
16502;SDS011;53067;48.114;11.694;2023-06-22T11:23:29;8.68;;;5.92;;
16502;SDS011;53067;48.114;11.694;2023-06-22T11:25:57;10.13;;;6.80;;
16502;SDS011;53067;48.114;11.694;2023-06-22T11:28:24;12.88;;;6.70;;
16502;SDS011;53067;48.114;11.694;2023-06-22T11:30:52;11.18;;;7.47;;
16502;SDS011;53067;48.114;11.694;2023-06-22T11:33:19;11.63;;;6.60;;
16502;SDS011;53067;48.114;11.694;2023-06-22T11:35:47;10.75;;;6.05;;
16502;SDS011;53067;48.114;11.694;2023-06-22T11:38:15;11.40;;;6.85;;
16502;SDS011;53067;48.114;11.694;2023-06-22T11:40:44;12.63;;;7.20;;
16502;SDS011;53067;48.114;11.694;2023-06-22T11:43:11;11.68;;;6.55;;
16502;SDS011;53067;48.114;11.694;2023-06-22T11:45:40;8.75;;;6.55;;
16502;SDS011;53067;48.114;11.694;2023-06-22T11:48:08;8.15;;;6.10;;
16502;SDS011;53067;48.114;11.694;2023-06-22T11:50:35;13.38;;;7.35;;
16502;SDS011;53067;48.114;11.694;2023-06-22T11:53:03;10.65;;;6.62;;
16502;SDS011;53067;48.114;11.694;2023-06-22T11:55:31;10.40;;;7.62;;
16502;SDS011;53067;48.114;11.694;2023-06-22T11:57:58;12.30;;;7.03;;
16502;SDS011;53067;48.114;11.694;2023-06-22T12:00:27;8.15;;;6.90;;
16502;SDS011;53067;48.114;11.694;2023-06-22T12:02:55;9.18;;;6.40;;
16502;SDS011;53067;48.114;11.694;2023-06-22T12:05:23;8.18;;;6.55;;
16502;SDS011;53067;48.114;11.694;2023-06-22T12:07:52;11.33;;;6.45;;
16502;SDS011;53067;48.114;11.694;2023-06-22T12:10:21;8.90;;;6.58;;
16502;SDS011;53067;48.114;11.694;2023-06-22T12:12:50;11.40;;;6.62;;
16502;SDS011;53067;48.114;11.694;2023-06-22T12:15:18;9.00;;;6.92;;
16502;SDS011;53067;48.114;11.694;2023-06-22T12:17:45;10.08;;;6.58;;
16502;SDS011;53067;48.114;11.694;2023-06-22T12:20:14;11.08;;;6.67;;
16502;SDS011;53067;48.114;11.694;2023-06-22T12:22:41;9.63;;;6.80;;
16502;SDS011;53067;48.114;11.694;2023-06-22T12:25:09;12.40;;;6.95;;
16502;SDS011;53067;48.114;11.694;2023-06-22T12:27:37;9.68;;;6.25;;
16502;SDS011;53067;48.114;11.694;2023-06-22T12:30:05;8.63;;;6.55;;
16502;SDS011;53067;48.114;11.694;2023-06-22T12:32:42;14.00;;;6.58;;
16502;SDS011;53067;48.114;11.694;2023-06-22T12:35:10;14.35;;;7.00;;
16502;SDS011;53067;48.114;11.694;2023-06-22T12:37:42;11.15;;;6.37;;
16502;SDS011;53067;48.114;11.694;2023-06-22T12:40:10;9.80;;;6.58;;
16502;SDS011;53067;48.114;11.694;2023-06-22T12:42:38;13.00;;;5.80;;
16502;SDS011;53067;48.114;11.694;2023-06-22T12:45:19;15.40;;;5.50;;
16502;SDS011;53067;48.114;11.694;2023-06-22T12:47:47;12.43;;;6.60;;
16502;SDS011;53067;48.114;11.694;2023-06-22T12:50:15;11.60;;;6.60;;
16502;SDS011;53067;48.114;11.694;2023-06-22T12:52:43;8.35;;;6.05;;
16502;SDS011;53067;48.114;11.694;2023-06-22T12:55:10;11.73;;;5.60;;
16502;SDS011;53067;48.114;11.694;2023-06-22T12:57:38;7.90;;;6.17;;
16502;SDS011;53067;48.114;11.694;2023-06-22T13:00:06;10.90;;;6.15;;
16502;SDS011;53067;48.114;11.694;2023-06-22T13:02:36;12.18;;;6.25;;
16502;SDS011;53067;48.114;11.694;2023-06-22T13:05:03;12.82;;;5.85;;
16502;SDS011;53067;48.114;11.694;2023-06-22T13:07:31;8.03;;;6.00;;
16502;SDS011;53067;48.114;11.694;2023-06-22T13:09:59;10.20;;;6.37;;
16502;SDS011;53067;48.114;11.694;2023-06-22T13:12:26;9.75;;;6.55;;
16502;SDS011;53067;48.114;11.694;2023-06-22T13:14:54;10.25;;;5.95;;
16502;SDS011;53067;48.114;11.694;2023-06-22T13:17:22;10.28;;;5.83;;
16502;SDS011;53067;48.114;11.694;2023-06-22T13:19:49;10.72;;;6.12;;
16502;SDS011;53067;48.114;11.694;2023-06-22T13:22:27;8.73;;;6.12;;
16502;SDS011;53067;48.114;11.694;2023-06-22T13:25:01;14.80;;;6.08;;
16502;SDS011;53067;48.114;11.694;2023-06-22T13:27:28;9.65;;;6.08;;
16502;SDS011;53067;48.114;11.694;2023-06-22T13:29:56;11.48;;;6.30;;
16502;SDS011;53067;48.114;11.694;2023-06-22T13:32:24;11.85;;;5.78;;
16502;SDS011;53067;48.114;11.694;2023-06-22T13:34:52;8.93;;;6.45;;
16502;SDS011;53067;48.114;11.694;2023-06-22T13:37:20;7.75;;;5.83;;
16502;SDS011;53067;48.114;11.694;2023-06-22T13:39:47;12.65;;;6.40;;
16502;SDS011;53067;48.114;11.694;2023-06-22T13:42:15;6.50;;;5.70;;
16502;SDS011;53067;48.114;11.694;2023-06-22T13:44:43;8.53;;;5.55;;
16502;SDS011;53067;48.114;11.694;2023-06-22T13:47:10;8.33;;;5.85;;
16502;SDS011;53067;48.114;11.694;2023-06-22T13:49:37;8.90;;;6.10;;
16502;SDS011;53067;48.114;11.694;2023-06-22T13:52:07;8.38;;;6.25;;
16502;SDS011;53067;48.114;11.694;2023-06-22T13:54:36;9.83;;;6.03;;
16502;SDS011;53067;48.114;11.694;2023-06-22T13:57:03;10.88;;;5.80;;
16502;SDS011;53067;48.114;11.694;2023-06-22T13:59:31;9.98;;;5.83;;
16502;SDS011;53067;48.114;11.694;2023-06-22T14:01:59;6.47;;;5.87;;
16502;SDS011;53067;48.114;11.694;2023-06-22T14:04:26;13.83;;;5.97;;
16502;SDS011;53067;48.114;11.694;2023-06-22T14:06:54;11.15;;;6.00;;
16502;SDS011;53067;48.114;11.694;2023-06-22T14:09:22;9.58;;;5.87;;
16502;SDS011;53067;48.114;11.694;2023-06-22T14:11:49;10.32;;;5.72;;
16502;SDS011;53067;48.114;11.694;2023-06-22T14:14:17;9.43;;;5.83;;
16502;SDS011;53067;48.114;11.694;2023-06-22T14:16:44;10.55;;;6.35;;
16502;SDS011;53067;48.114;11.694;2023-06-22T14:19:12;12.68;;;6.30;;
16502;SDS011;53067;48.114;11.694;2023-06-22T14:21:39;12.58;;;6.45;;
16502;SDS011;53067;48.114;11.694;2023-06-22T14:24:07;12.60;;;5.95;;
16502;SDS011;53067;48.114;11.694;2023-06-22T14:26:34;8.60;;;6.17;;
16502;SDS011;53067;48.114;11.694;2023-06-22T14:29:02;8.83;;;5.62;;
16502;SDS011;53067;48.114;11.694;2023-06-22T14:31:29;10.80;;;5.92;;
16502;SDS011;53067;48.114;11.694;2023-06-22T14:33:57;12.13;;;6.12;;
16502;SDS011;53067;48.114;11.694;2023-06-22T14:36:24;8.63;;;5.90;;
16502;SDS011;53067;48.114;11.694;2023-06-22T14:38:52;11.53;;;5.62;;
16502;SDS011;53067;48.114;11.694;2023-06-22T14:41:19;10.08;;;6.10;;
16502;SDS011;53067;48.114;11.694;2023-06-22T14:43:47;14.60;;;5.92;;
16502;SDS011;53067;48.114;11.694;2023-06-22T14:46:21;12.93;;;6.05;;
16502;SDS011;53067;48.114;11.694;2023-06-22T14:48:45;8.95;;;5.37;;
16502;SDS011;53067;48.114;11.694;2023-06-22T14:51:14;8.75;;;5.37;;
16502;SDS011;53067;48.114;11.694;2023-06-22T14:53:42;11.95;;;6.35;;
16502;SDS011;53067;48.114;11.694;2023-06-22T14:56:11;11.30;;;6.00;;
16502;SDS011;53067;48.114;11.694;2023-06-22T14:58:42;9.90;;;5.70;;
16502;SDS011;53067;48.114;11.694;2023-06-22T15:01:25;12.25;;;5.90;;